Time;durP1;ratioP1;P1;durP2;ratioP2;P2;SDS_P1;SDS_P2;PMS_P1;PMS_P2;Temp;Humidity;BMP_temperature;BMP_pressure;BME280_temperature;BME280_humidity;BME280_pressure;Samples;Min_cycle;Max_cycle;Signal;HPM_P1;HPM_P2
2023/12/24 00:01:34;;;;;;;5.50;1.42;;;11.90;99.30;;;;;;6330524;28;20055;-81
2023/12/24 00:04:36;;;;;;;12.45;1.40;;;11.80;99.60;;;;;;6305665;28;20605;-82
2023/12/24 00:07:37;;;;;;;7.75;1.30;;;12.00;99.80;;;;;;6347719;28;20498;-79
2023/12/24 00:10:39;;;;;;;6.03;1.48;;;11.90;99.90;;;;;;6324198;28;20051;-80
2023/12/24 00:13:41;;;;;;;7.00;1.27;;;11.90;99.90;;;;;;6325552;28;20131;-81
2023/12/24 00:16:43;;;;;;;6.80;1.48;;;11.90;99.90;;;;;;6343564;28;20052;-80
2023/12/24 00:19:44;;;;;;;5.90;1.40;;;11.80;99.90;;;;;;6313261;28;20047;-80
2023/12/24 00:22:46;;;;;;;3.78;1.40;;;11.80;99.90;;;;;;6320867;28;20051;-80
2023/12/24 00:25:48;;;;;;;6.80;1.17;;;11.70;99.90;;;;;;6343740;28;20047;-80
2023/12/24 00:28:51;;;;;;;7.63;1.63;;;11.60;99.90;;;;;;6329336;28;20495;-81
2023/12/24 00:31:52;;;;;;;9.75;2.03;;;11.40;99.90;;;;;;6347227;28;20426;-82
2023/12/24 00:34:54;;;;;;;6.95;1.45;;;11.40;99.90;;;;;;6347255;28;20066;-81
2023/12/24 00:37:56;;;;;;;7.10;1.50;;;11.40;99.90;;;;;;6328507;28;20405;-81
2023/12/24 00:40:57;;;;;;;5.63;1.40;;;11.20;99.90;;;;;;6321841;28;20051;-81
2023/12/24 00:43:59;;;;;;;6.60;1.55;;;11.20;99.90;;;;;;6345362;27;20058;-82
2023/12/24 00:47:01;;;;;;;7.95;1.55;;;11.20;99.90;;;;;;6346473;27;20051;-82
2023/12/24 00:50:02;;;;;;;4.90;1.38;;;11.30;99.90;;;;;;6346483;28;20052;-82
2023/12/24 00:53:04;;;;;;;8.90;1.52;;;11.20;99.90;;;;;;6346892;28;20056;-82
2023/12/24 00:56:06;;;;;;;9.45;2.00;;;11.30;99.90;;;;;;6339242;28;20055;-81
2023/12/24 00:59:07;;;;;;;10.05;1.88;;;11.30;99.90;;;;;;6321655;28;20062;-81
2023/12/24 01:02:09;;;;;;;8.95;1.83;;;11.30;99.90;;;;;;6346950;28;20568;-82
2023/12/24 01:05:11;;;;;;;8.43;1.70;;;11.30;99.90;;;;;;6342653;28;20055;-82
2023/12/24 01:08:13;;;;;;;11.75;1.90;;;11.40;99.90;;;;;;6340819;27;20070;-82
2023/12/24 01:11:15;;;;;;;10.60;1.92;;;11.40;99.90;;;;;;6345977;28;20055;-83
2023/12/24 01:14:16;;;;;;;13.18;2.33;;;11.40;99.90;;;;;;6341004;28;20051;-83
2023/12/24 01:17:18;;;;;;;11.32;2.30;;;11.40;99.90;;;;;;6323790;28;20051;-82
2023/12/24 01:20:20;;;;;;;18.33;2.38;;;11.40;99.90;;;;;;6346062;28;20079;-81
2023/12/24 01:23:22;;;;;;;14.35;2.30;;;11.40;99.90;;;;;;6342867;28;20517;-84
2023/12/24 01:26:24;;;;;;;9.23;2.08;;;11.40;99.90;;;;;;6327267;28;20059;-83
2023/12/24 01:29:25;;;;;;;11.90;2.15;;;11.40;99.90;;;;;;6347535;27;20054;-83
2023/12/24 01:32:27;;;;;;;12.15;2.40;;;11.40;99.90;;;;;;6345197;27;20054;-82
2023/12/24 01:35:29;;;;;;;11.32;2.33;;;11.40;99.90;;;;;;6327598;28;20058;-82
2023/12/24 01:38:30;;;;;;;13.70;2.25;;;11.40;99.90;;;;;;6345628;28;20054;-84
2023/12/24 01:41:32;;;;;;;15.38;2.70;;;11.40;99.90;;;;;;6332307;27;20738;-82
2023/12/24 01:44:34;;;;;;;12.18;2.63;;;11.40;99.90;;;;;;6331076;27;20056;-83
2023/12/24 01:47:36;;;;;;;11.45;2.42;;;11.40;99.90;;;;;;6344982;28;20056;-83
2023/12/24 01:50:38;;;;;;;12.40;2.40;;;11.50;99.90;;;;;;6327078;28;20056;-83
2023/12/24 01:53:39;;;;;;;9.10;2.40;;;11.40;99.90;;;;;;6353387;27;20395;-83
2023/12/24 01:56:41;;;;;;;10.90;2.08;;;11.40;99.90;;;;;;6330893;27;20047;-83
2023/12/24 01:59:43;;;;;;;15.27;2.72;;;11.40;99.90;;;;;;6334988;27;20142;-82
2023/12/24 02:02:44;;;;;;;12.50;2.45;;;11.40;99.90;;;;;;6327059;28;20133;-82
2023/12/24 02:05:46;;;;;;;10.73;2.35;;;11.40;99.90;;;;;;6324999;28;20058;-81
2023/12/24 02:08:48;;;;;;;11.13;2.45;;;11.50;99.90;;;;;;6366826;27;20081;-82
2023/12/24 02:11:50;;;;;;;13.23;2.35;;;11.40;99.90;;;;;;6338101;28;20055;-81
2023/12/24 02:14:51;;;;;;;14.55;2.15;;;11.50;99.90;;;;;;6343767;28;20687;-82
2023/12/24 02:17:53;;;;;;;12.85;2.05;;;11.50;99.90;;;;;;6314503;28;20075;-82
2023/12/24 02:20:56;;;;;;;9.40;1.90;;;11.50;99.90;;;;;;6326322;28;20499;-82
2023/12/24 02:23:58;;;;;;;9.52;1.98;;;11.60;99.90;;;;;;6319068;28;20457;-83
2023/12/24 02:27:00;;;;;;;10.27;1.67;;;11.60;99.90;;;;;;6320778;28;20052;-82
2023/12/24 02:30:01;;;;;;;12.13;1.77;;;11.60;99.90;;;;;;6299484;28;20503;-82
2023/12/24 02:33:03;;;;;;;9.65;1.80;;;11.60;99.90;;;;;;6365277;27;20047;-82
2023/12/24 02:36:05;;;;;;;10.02;1.85;;;11.60;99.90;;;;;;6340130;27;20474;-83
2023/12/24 02:39:06;;;;;;;10.77;1.50;;;11.70;99.90;;;;;;6326878;28;20047;-82
2023/12/24 02:42:08;;;;;;;7.80;1.55;;;11.70;99.90;;;;;;6326450;28;20051;-82
2023/12/24 02:45:09;;;;;;;5.28;1.40;;;11.70;99.90;;;;;;6340214;28;20054;-81
2023/12/24 02:48:11;;;;;;;8.38;1.38;;;11.80;99.90;;;;;;6326148;28;20059;-82
2023/12/24 02:51:13;;;;;;;5.82;1.45;;;11.80;99.90;;;;;;6342293;28;20055;-81
2023/12/24 02:54:15;;;;;;;7.57;1.63;;;11.80;99.90;;;;;;6348246;28;20047;-81
2023/12/24 02:57:16;;;;;;;9.48;1.45;;;11.90;99.90;;;;;;6323019;28;20055;-82
2023/12/24 03:00:18;;;;;;;8.65;1.45;;;11.90;99.90;;;;;;6326237;28;20388;-81
2023/12/24 03:03:19;;;;;;;6.47;1.30;;;11.90;99.90;;;;;;6419424;22;20510;-82
2023/12/24 03:06:21;;;;;;;5.95;1.27;;;12.00;99.90;;;;;;6316746;28;20226;-83
2023/12/24 03:09:23;;;;;;;5.22;1.00;;;11.90;99.90;;;;;;6305373;28;20126;-82
2023/12/24 03:12:25;;;;;;;5.28;1.10;;;12.00;99.90;;;;;;6304896;28;20047;-82
2023/12/24 03:15:26;;;;;;;4.88;1.17;;;12.10;99.90;;;;;;6296864;28;20052;-82
2023/12/24 03:18:28;;;;;;;6.07;1.20;;;12.10;99.90;;;;;;6321026;28;20056;-83
2023/12/24 03:21:30;;;;;;;7.43;1.20;;;12.10;99.90;;;;;;6321627;28;20066;-83
2023/12/24 03:24:31;;;;;;;4.25;1.08;;;12.10;99.90;;;;;;6322716;28;20059;-83
2023/12/24 03:27:33;;;;;;;6.80;1.10;;;12.20;99.90;;;;;;6322997;28;20051;-83
2023/12/24 03:30:35;;;;;;;5.10;1.10;;;12.20;99.90;;;;;;6321822;28;20494;-82
2023/12/24 03:33:36;;;;;;;5.20;0.85;;;12.30;99.90;;;;;;6304557;28;20051;-82
2023/12/24 03:36:38;;;;;;;6.38;1.10;;;12.20;99.90;;;;;;6322871;28;20494;-81
2023/12/24 03:39:40;;;;;;;5.22;1.00;;;12.30;99.90;;;;;;6297962;28;20064;-82
2023/12/24 03:42:41;;;;;;;6.40;1.02;;;12.30;99.90;;;;;;6321592;28;20090;-83
2023/12/24 03:45:43;;;;;;;3.38;0.80;;;12.30;99.90;;;;;;6320174;28;20056;-82
2023/12/24 03:48:45;;;;;;;4.55;0.90;;;12.30;99.90;;;;;;6297141;28;20055;-82
2023/12/24 03:51:47;;;;;;;5.10;1.00;;;12.30;99.90;;;;;;6320733;28;20063;-82
2023/12/24 03:54:49;;;;;;;7.35;1.10;;;12.30;99.90;;;;;;6303942;28;20490;-82
2023/12/24 03:57:50;;;;;;;5.93;1.05;;;12.40;99.90;;;;;;6303512;28;20048;-82
2023/12/24 04:00:52;;;;;;;6.25;1.05;;;12.40;99.90;;;;;;6320127;28;20533;-82
2023/12/24 04:03:54;;;;;;;5.55;1.00;;;12.50;99.90;;;;;;6310204;28;20060;-82
2023/12/24 04:06:55;;;;;;;5.35;1.15;;;12.40;99.90;;;;;;6297901;28;20049;-82
2023/12/24 04:09:57;;;;;;;5.65;1.00;;;12.40;99.90;;;;;;6315722;28;20044;-81
2023/12/24 04:12:58;;;;;;;8.07;1.27;;;12.40;99.90;;;;;;6315673;28;20052;-82
2023/12/24 04:16:00;;;;;;;5.13;0.90;;;12.50;99.90;;;;;;6301328;28;20396;-84
2023/12/24 04:19:02;;;;;;;5.43;1.02;;;12.50;99.90;;;;;;6300342;28;20407;-82
2023/12/24 04:22:04;;;;;;;5.53;0.90;;;12.50;99.90;;;;;;6315830;28;20074;-82
2023/12/24 04:25:05;;;;;;;7.28;0.93;;;12.50;99.90;;;;;;6321540;28;20052;-82
2023/12/24 04:28:07;;;;;;;3.70;0.85;;;12.60;99.90;;;;;;6316364;28;20048;-82
2023/12/24 04:31:08;;;;;;;5.28;1.15;;;12.50;99.90;;;;;;6303353;28;20052;-81
2023/12/24 04:34:10;;;;;;;4.65;0.95;;;12.60;99.90;;;;;;6303440;28;20059;-82
2023/12/24 04:37:12;;;;;;;4.20;0.80;;;12.50;99.90;;;;;;6321696;28;20396;-81
2023/12/24 04:40:14;;;;;;;5.00;0.80;;;12.60;99.90;;;;;;6318533;28;20059;-82
2023/12/24 04:43:15;;;;;;;4.85;1.10;;;12.60;99.90;;;;;;6299084;28;20051;-82
2023/12/24 04:46:17;;;;;;;6.13;0.88;;;12.60;99.90;;;;;;6320469;28;20048;-81
2023/12/24 04:49:19;;;;;;;4.13;0.90;;;12.60;99.90;;;;;;6303062;28;20052;-82
2023/12/24 04:52:20;;;;;;;4.68;0.90;;;12.60;99.90;;;;;;6320969;28;20453;-83
2023/12/24 04:55:22;;;;;;;8.23;1.40;;;12.60;99.90;;;;;;6318413;28;20048;-83
2023/12/24 04:58:23;;;;;;;2.97;0.80;;;12.70;99.90;;;;;;6319557;28;20066;-82
2023/12/24 05:01:25;;;;;;;3.00;0.80;;;12.70;99.90;;;;;;6297545;28;20055;-82
2023/12/24 05:04:28;;;;;;;4.00;1.00;;;12.70;99.90;;;;;;6307932;28;20066;-82
2023/12/24 05:07:29;;;;;;;3.72;0.80;;;12.70;99.90;;;;;;6296643;28;20044;-82
2023/12/24 05:10:31;;;;;;;4.78;0.98;;;12.80;99.90;;;;;;6319969;28;20052;-82
2023/12/24 05:13:33;;;;;;;3.30;0.85;;;12.80;99.90;;;;;;6299447;28;20052;-81
2023/12/24 05:16:34;;;;;;;4.45;0.70;;;12.80;99.90;;;;;;6320974;28;20466;-82
2023/12/24 05:19:36;;;;;;;2.55;0.80;;;12.80;99.90;;;;;;6302625;28;20457;-82
2023/12/24 05:22:38;;;;;;;5.82;0.85;;;12.90;99.90;;;;;;6311621;28;20048;-83
2023/12/24 05:25:39;;;;;;;2.05;0.60;;;12.80;99.90;;;;;;6295768;28;20099;-81
2023/12/24 05:28:41;;;;;;;3.78;0.77;;;12.90;99.90;;;;;;6310673;28;20056;-81
2023/12/24 05:31:42;;;;;;;3.22;0.73;;;12.90;99.90;;;;;;6311049;28;20509;-81
2023/12/24 05:34:45;;;;;;;5.75;0.80;;;12.90;99.90;;;;;;6320103;28;20052;-83
2023/12/24 05:37:47;;;;;;;2.85;0.60;;;12.90;99.90;;;;;;6319976;28;20040;-83
2023/12/24 05:40:48;;;;;;;2.38;0.50;;;13.00;99.90;;;;;;6295577;28;20041;-82
2023/12/24 05:43:50;;;;;;;3.90;0.80;;;13.00;99.90;;;;;;6291984;28;20059;-81
2023/12/24 05:46:52;;;;;;;1.85;0.57;;;13.00;99.90;;;;;;6319787;28;20525;-82
2023/12/24 05:49:53;;;;;;;2.40;0.60;;;13.00;99.90;;;;;;6319286;28;20522;-82
2023/12/24 05:52:55;;;;;;;2.45;0.60;;;13.00;99.90;;;;;;6319166;28;20109;-82
2023/12/24 05:55:56;;;;;;;1.95;0.40;;;13.10;99.90;;;;;;6317876;28;20048;-81
2023/12/24 05:58:58;;;;;;;2.63;0.63;;;13.10;99.90;;;;;;6314845;28;20052;-82
2023/12/24 06:02:02;;;;;;;1.98;0.68;;;13.10;99.90;;;;;;6319508;28;20130;-82
2023/12/24 06:05:04;;;;;;;1.85;0.50;;;13.20;99.90;;;;;;6317095;28;20414;-81
2023/12/24 06:08:06;;;;;;;1.52;0.52;;;13.10;99.90;;;;;;6320002;28;20479;-82
2023/12/24 06:11:07;;;;;;;2.42;0.40;;;13.10;99.90;;;;;;6294776;28;20045;-80
2023/12/24 06:14:09;;;;;;;2.25;0.60;;;13.20;99.90;;;;;;6294657;28;20052;-80
2023/12/24 06:17:11;;;;;;;5.40;0.60;;;13.20;99.90;;;;;;6319476;28;20059;-81
2023/12/24 06:20:12;;;;;;;1.95;0.40;;;13.20;99.90;;;;;;6315346;28;20055;-81
2023/12/24 06:23:14;;;;;;;1.30;0.43;;;13.20;99.90;;;;;;6319056;28;20044;-80
2023/12/24 06:26:16;;;;;;;2.25;0.60;;;13.20;99.90;;;;;;6318466;28;20069;-81
2023/12/24 06:29:17;;;;;;;1.65;0.40;;;13.10;99.90;;;;;;6315709;28;20418;-82
2023/12/24 06:32:19;;;;;;;1.35;0.40;;;13.20;99.90;;;;;;6318245;28;20056;-81
2023/12/24 06:35:22;;;;;;;2.25;0.43;;;13.20;99.90;;;;;;6318525;28;20097;-81
2023/12/24 06:38:25;;;;;;;1.63;0.50;;;13.20;99.90;;;;;;6294335;28;20075;-81
2023/12/24 06:41:27;;;;;;;2.53;0.50;;;13.20;99.90;;;;;;6316007;28;20063;-80
2023/12/24 06:44:28;;;;;;;2.08;0.50;;;13.10;99.90;;;;;;6306802;28;20167;-81
2023/12/24 06:47:30;;;;;;;2.13;0.60;;;13.10;99.90;;;;;;6316979;28;20051;-80
2023/12/24 06:50:32;;;;;;;1.30;0.50;;;13.20;99.90;;;;;;6300061;28;20048;-80
2023/12/24 06:53:33;;;;;;;2.50;0.57;;;13.20;99.90;;;;;;6293934;28;20151;-79
2023/12/24 06:56:35;;;;;;;1.65;0.50;;;13.10;99.90;;;;;;6317232;28;20387;-81
2023/12/24 06:59:37;;;;;;;2.00;0.50;;;13.10;99.90;;;;;;6315803;28;20142;-81
2023/12/24 07:02:38;;;;;;;2.88;0.68;;;13.10;99.90;;;;;;6312819;28;20052;-79
2023/12/24 07:05:41;;;;;;;2.65;0.60;;;13.10;99.90;;;;;;6273369;28;20485;-80
2023/12/24 07:08:43;;;;;;;2.83;0.65;;;13.00;99.90;;;;;;6293718;28;20053;-79
2023/12/24 07:11:45;;;;;;;2.67;0.50;;;13.10;99.90;;;;;;6309580;28;20482;-80
2023/12/24 07:14:46;;;;;;;3.20;0.60;;;13.00;99.90;;;;;;6290775;28;20669;-80
2023/12/24 07:17:48;;;;;;;2.65;0.50;;;13.00;99.90;;;;;;6299552;28;20414;-79
2023/12/24 07:20:50;;;;;;;1.80;0.40;;;13.10;99.90;;;;;;6317618;28;20068;-80
2023/12/24 07:23:51;;;;;;;2.10;0.50;;;13.10;99.90;;;;;;6293515;28;20060;-80
2023/12/24 07:26:53;;;;;;;4.30;0.68;;;13.10;99.90;;;;;;6310848;28;20052;-80
2023/12/24 07:29:55;;;;;;;1.65;0.50;;;13.10;99.90;;;;;;6310715;28;20066;-80
2023/12/24 07:32:57;;;;;;;2.20;0.50;;;13.10;99.90;;;;;;6311749;28;20071;-80
2023/12/24 07:35:59;;;;;;;2.08;0.40;;;13.10;99.90;;;;;;6318161;28;20055;-81
2023/12/24 07:39:01;;;;;;;1.05;0.40;;;13.10;99.90;;;;;;6312382;28;20208;-81
2023/12/24 07:42:02;;;;;;;2.08;0.60;;;13.10;99.90;;;;;;6317817;28;20059;-80
2023/12/24 07:45:04;;;;;;;3.20;0.60;;;13.00;99.90;;;;;;6312425;28;20059;-79
2023/12/24 07:48:08;;;;;;;2.40;0.50;;;13.00;99.90;;;;;;6317835;28;20137;-82
2023/12/24 07:51:10;;;;;;;2.42;0.60;;;13.00;99.90;;;;;;6317786;28;20058;-80
2023/12/24 07:54:11;;;;;;;0.45;0.30;;;13.00;99.90;;;;;;6296382;28;20056;-80
2023/12/24 07:57:13;;;;;;;1.48;0.52;;;13.00;99.90;;;;;;6318898;28;20055;-80
2023/12/24 08:00:14;;;;;;;1.90;0.40;;;13.00;99.90;;;;;;6302113;28;20083;-79
2023/12/24 08:03:19;;;;;;;1.33;0.40;;;13.10;99.90;;;;;;6315061;28;20060;-81
2023/12/24 08:06:21;;;;;;;1.85;0.40;;;13.10;99.90;;;;;;6321170;28;20058;-79
2023/12/24 08:09:30;;;;;;;1.27;0.43;;;13.10;99.90;;;;;;6309175;28;20565;-80
2023/12/24 08:12:31;;;;;;;0.80;0.40;;;13.10;99.90;;;;;;6309055;28;20060;-80
2023/12/24 08:15:33;;;;;;;1.05;0.40;;;13.00;99.90;;;;;;6320936;28;20044;-80
2023/12/24 08:18:37;;;;;;;1.63;0.50;;;12.90;99.90;;;;;;6317949;28;20060;-79
2023/12/24 08:21:39;;;;;;;1.35;0.40;;;13.00;99.90;;;;;;6321187;28;20048;-80
2023/12/24 08:24:40;;;;;;;1.95;0.40;;;13.00;99.90;;;;;;6305032;28;20518;-80
2023/12/24 08:27:42;;;;;;;1.40;0.40;;;13.00;99.90;;;;;;6320471;28;20410;-81
2023/12/24 08:30:43;;;;;;;1.17;0.45;;;13.10;99.90;;;;;;6308463;28;20056;-80
2023/12/24 08:33:45;;;;;;;0.80;0.38;;;13.20;99.90;;;;;;6312600;28;20521;-82
2023/12/24 08:36:47;;;;;;;1.58;0.50;;;13.20;99.90;;;;;;6317104;28;20174;-83
2023/12/24 08:39:48;;;;;;;2.08;0.40;;;13.30;99.90;;;;;;6297156;28;20052;-80
2023/12/24 08:42:50;;;;;;;1.42;0.30;;;13.40;99.90;;;;;;6286538;28;20041;-87
2023/12/24 08:45:52;;;;;;;2.10;0.50;;;13.50;99.90;;;;;;6308583;28;20126;-81
2023/12/24 08:48:54;;;;;;;1.17;0.40;;;13.50;99.90;;;;;;6302418;28;20067;-81
2023/12/24 08:51:55;;;;;;;1.45;0.50;;;13.50;99.90;;;;;;6320177;28;20048;-81
2023/12/24 08:54:57;;;;;;;0.75;0.40;;;13.60;99.90;;;;;;6306826;28;20055;-81
2023/12/24 08:57:59;;;;;;;0.82;0.40;;;13.60;99.90;;;;;;6314450;28;20597;-80
2023/12/24 09:01:00;;;;;;;1.27;0.30;;;13.60;99.90;;;;;;6277631;28;20088;-80
2023/12/24 09:04:03;;;;;;;2.08;0.30;;;13.70;99.90;;;;;;6307116;28;20592;-80
2023/12/24 09:07:05;;;;;;;0.75;0.40;;;13.70;99.90;;;;;;6320470;28;20056;-79
2023/12/24 09:10:06;;;;;;;0.55;0.30;;;13.70;99.90;;;;;;6302499;28;20407;-80
2023/12/24 09:13:08;;;;;;;2.08;0.50;;;13.80;99.90;;;;;;6314756;28;20052;-80
2023/12/24 09:16:10;;;;;;;0.43;0.30;;;13.80;99.90;;;;;;6316693;28;20052;-82
2023/12/24 09:19:11;;;;;;;0.65;0.32;;;13.80;99.90;;;;;;6293638;28;20059;-82
2023/12/24 09:22:13;;;;;;;0.28;0.25;;;13.80;99.90;;;;;;6302450;28;20055;-81
2023/12/24 09:25:15;;;;;;;0.52;0.28;;;13.90;99.90;;;;;;6278230;28;20408;-83
2023/12/24 09:28:16;;;;;;;0.47;0.30;;;13.90;99.90;;;;;;6295038;28;20045;-85
2023/12/24 09:31:18;;;;;;;0.95;0.30;;;13.90;99.90;;;;;;6293335;28;20407;-86
2023/12/24 09:34:20;;;;;;;1.40;0.40;;;14.00;99.90;;;;;;6318839;28;20055;-81
2023/12/24 09:37:22;;;;;;;0.98;0.40;;;14.00;99.90;;;;;;6316993;28;20056;-83
2023/12/24 09:40:23;;;;;;;0.95;0.40;;;14.00;99.90;;;;;;6302119;28;20059;-81
2023/12/24 09:43:25;;;;;;;1.08;0.30;;;14.00;99.90;;;;;;6316896;28;20062;-85
2023/12/24 09:46:26;;;;;;;0.60;0.30;;;14.10;99.90;;;;;;6302516;28;20390;-81
2023/12/24 09:49:28;;;;;;;0.77;0.40;;;14.10;99.90;;;;;;6308474;28;20453;-83
2023/12/24 09:52:33;;;;;;;1.45;0.40;;;14.10;99.90;;;;;;6288071;28;20529;-80
2023/12/24 09:55:34;;;;;;;0.47;0.30;;;14.20;99.90;;;;;;6319295;28;20056;-81
2023/12/24 09:58:36;;;;;;;1.77;0.32;;;14.20;99.90;;;;;;6300669;28;20044;-82
2023/12/24 10:01:37;;;;;;;0.77;0.30;;;14.30;99.90;;;;;;6294640;28;20049;-81
2023/12/24 10:04:39;;;;;;;0.63;0.30;;;14.30;99.90;;;;;;6296520;28;20057;-82
2023/12/24 10:07:45;;;;;;;0.73;0.40;;;14.30;99.90;;;;;;6285708;28;20053;-82
2023/12/24 10:10:47;;;;;;;1.20;0.40;;;14.40;99.90;;;;;;6269634;28;20136;-82
2023/12/24 10:13:48;;;;;;;1.23;0.40;;;14.40;99.90;;;;;;6291481;28;20064;-81
2023/12/24 10:16:50;;;;;;;2.47;0.50;;;14.40;99.90;;;;;;6293543;28;20052;-81
2023/12/24 10:19:52;;;;;;;2.08;0.50;;;14.50;99.90;;;;;;6293461;28;20111;-80
2023/12/24 10:22:53;;;;;;;1.20;0.70;;;14.50;99.90;;;;;;6275479;28;20049;-80
2023/12/24 10:25:55;;;;;;;0.65;0.30;;;14.50;99.90;;;;;;6293365;28;20152;-84
2023/12/24 10:28:57;;;;;;;1.63;0.50;;;14.60;99.90;;;;;;6291702;28;20060;-81
2023/12/24 10:32:12;;;;;;;2.28;0.55;;;14.50;99.90;;;;;;6268793;28;20156;-81
2023/12/24 10:35:14;;;;;;;1.30;0.40;;;14.60;99.90;;;;;;6293231;28;20048;-81
2023/12/24 10:38:16;;;;;;;1.02;0.40;;;14.50;99.90;;;;;;6293755;28;20135;-80
2023/12/24 10:41:18;;;;;;;3.92;0.80;;;14.60;99.90;;;;;;6293495;28;20060;-81
2023/12/24 10:44:20;;;;;;;2.30;0.60;;;14.60;99.90;;;;;;6287677;28;20063;-80
2023/12/24 10:47:23;;;;;;;1.50;0.65;;;14.60;99.90;;;;;;6293069;28;20052;-81
2023/12/24 10:50:24;;;;;;;2.20;0.60;;;14.60;99.90;;;;;;6274672;28;20048;-81
2023/12/24 10:53:26;;;;;;;3.63;0.80;;;14.60;99.90;;;;;;6308323;28;20063;-81
2023/12/24 10:56:28;;;;;;;2.58;0.75;;;14.70;99.90;;;;;;6293678;28;20430;-82
2023/12/24 10:59:29;;;;;;;2.85;0.60;;;14.70;99.90;;;;;;6274628;28;20058;-81
2023/12/24 11:02:31;;;;;;;2.53;0.47;;;14.90;99.90;;;;;;6297240;28;20059;-81
2023/12/24 11:05:32;;;;;;;3.53;0.60;;;14.90;99.90;;;;;;6316021;28;20143;-81
2023/12/24 11:08:34;;;;;;;3.00;0.60;;;14.90;99.90;;;;;;6318022;28;20201;-81
2023/12/24 11:11:36;;;;;;;2.65;0.80;;;15.00;99.90;;;;;;6302106;28;20131;-81
2023/12/24 11:14:38;;;;;;;2.42;0.60;;;15.10;99.90;;;;;;6298371;28;20773;-82
2023/12/24 11:17:41;;;;;;;3.15;0.70;;;15.20;99.90;;;;;;6293910;28;20056;-81
2023/12/24 11:20:42;;;;;;;3.33;0.73;;;15.20;99.90;;;;;;6292867;28;20423;-81
2023/12/24 11:23:44;;;;;;;5.38;1.60;;;15.10;99.90;;;;;;6316852;28;20190;-82
2023/12/24 11:26:46;;;;;;;2.55;0.60;;;15.10;99.90;;;;;;6310401;28;20048;-81
2023/12/24 11:29:52;;;;;;;3.30;0.73;;;15.20;99.90;;;;;;6298306;28;20055;-82
2023/12/24 11:32:54;;;;;;;3.00;1.00;;;15.10;99.90;;;;;;6322421;28;20052;-82
2023/12/24 11:35:56;;;;;;;2.45;0.70;;;15.10;99.90;;;;;;6321241;28;20059;-80
2023/12/24 11:38:58;;;;;;;6.80;1.00;;;15.10;99.90;;;;;;6319297;28;20111;-85
2023/12/24 11:42:00;;;;;;;3.30;0.90;;;15.10;99.90;;;;;;6304434;28;20692;-81
2023/12/24 11:45:01;;;;;;;5.07;0.90;;;15.10;99.90;;;;;;6297276;28;20053;-80
2023/12/24 11:48:03;;;;;;;3.40;0.82;;;15.10;99.90;;;;;;6298574;28;20056;-83
2023/12/24 11:51:05;;;;;;;3.28;0.70;;;15.20;99.90;;;;;;6321770;28;20048;-82
2023/12/24 11:54:06;;;;;;;3.70;0.90;;;15.20;99.90;;;;;;6297432;28;20514;-84
2023/12/24 11:57:09;;;;;;;4.78;0.90;;;15.20;99.90;;;;;;6299380;28;20066;-83
2023/12/24 12:00:12;;;;;;;4.88;1.10;;;15.20;99.90;;;;;;6320940;28;20059;-84
2023/12/24 12:03:13;;;;;;;3.45;0.75;;;15.30;99.90;;;;;;6295491;28;20755;-83
2023/12/24 12:06:18;;;;;;;6.25;1.40;;;15.40;99.90;;;;;;6319142;28;20048;-83
2023/12/24 12:09:20;;;;;;;4.72;0.80;;;15.50;99.90;;;;;;6304169;28;20044;-87
2023/12/24 12:12:22;;;;;;;4.25;0.70;;;15.60;99.90;;;;;;6318187;28;20048;-83
2023/12/24 12:15:26;;;;;;;3.88;0.90;;;15.60;99.90;;;;;;6317769;28;20052;-82
2023/12/24 12:18:28;;;;;;;3.47;0.70;;;15.60;99.90;;;;;;6316473;28;20052;-81
2023/12/24 12:21:29;;;;;;;2.70;1.00;;;15.60;99.90;;;;;;6301812;28;20060;-81
2023/12/24 12:24:31;;;;;;;4.38;0.75;;;15.50;99.90;;;;;;6303670;28;20055;-81
2023/12/24 12:27:33;;;;;;;4.32;0.82;;;15.50;99.90;;;;;;6303617;28;20061;-81
2023/12/24 12:30:34;;;;;;;4.40;0.88;;;15.40;99.90;;;;;;6295277;28;20175;-82
2023/12/24 12:33:36;;;;;;;4.63;1.02;;;15.40;99.90;;;;;;6279109;28;20130;-82
2023/12/24 12:36:38;;;;;;;5.68;1.20;;;15.30;99.90;;;;;;6296287;28;20430;-86
2023/12/24 12:39:39;;;;;;;5.80;1.27;;;15.40;99.90;;;;;;6303499;28;20372;-83
2023/12/24 12:42:41;;;;;;;5.25;1.08;;;15.40;99.90;;;;;;6297748;28;20055;-82
2023/12/24 12:45:45;;;;;;;3.40;1.10;;;15.40;99.90;;;;;;6303729;28;20052;-82
2023/12/24 12:48:48;;;;;;;6.13;1.35;;;15.40;99.90;;;;;;6295454;28;20083;-82
2023/12/24 12:51:50;;;;;;;5.25;1.00;;;15.50;99.80;;;;;;6296265;28;20056;-83
2023/12/24 12:54:54;;;;;;;4.70;1.35;;;15.40;99.40;;;;;;6320785;28;20068;-82
2023/12/24 12:57:56;;;;;;;6.35;1.30;;;15.40;99.90;;;;;;6298054;28;20084;-81
2023/12/24 13:00:57;;;;;;;4.32;1.33;;;15.40;99.40;;;;;;6321240;28;20047;-82
2023/12/24 13:03:59;;;;;;;4.47;1.13;;;15.40;99.90;;;;;;6277944;28;20155;-80
2023/12/24 13:07:10;;;;;;;4.43;1.00;;;15.30;99.10;;;;;;6295773;28;20056;-80
2023/12/24 13:10:13;;;;;;;4.80;1.17;;;15.20;99.80;;;;;;6320801;28;20052;-82
2023/12/24 13:13:14;;;;;;;6.07;1.13;;;15.20;99.90;;;;;;6302247;28;20082;-82
2023/12/24 13:16:16;;;;;;;5.90;1.02;;;15.20;99.50;;;;;;6321155;28;20048;-82
2023/12/24 13:19:17;;;;;;;5.20;1.15;;;15.20;99.90;;;;;;6320855;28;20052;-82
2023/12/24 13:22:19;;;;;;;4.70;1.17;;;15.10;99.90;;;;;;6318513;28;20079;-82
2023/12/24 13:25:23;;;;;;;5.55;1.20;;;15.10;99.90;;;;;;6301834;28;20044;-81
2023/12/24 13:28:25;;;;;;;5.82;1.20;;;15.10;99.60;;;;;;6292797;28;20541;-81
2023/12/24 13:31:26;;;;;;;4.03;1.27;;;15.10;99.90;;;;;;6295503;28;20140;-82
2023/12/24 13:34:28;;;;;;;5.25;1.40;;;15.10;99.90;;;;;;6319507;28;20055;-83
2023/12/24 13:37:30;;;;;;;6.28;1.20;;;15.00;99.90;;;;;;6301689;28;20237;-82
2023/12/24 13:40:31;;;;;;;7.47;1.30;;;15.00;99.90;;;;;;6320154;28;20052;-83
2023/12/24 13:43:33;;;;;;;4.18;1.13;;;15.00;99.90;;;;;;6298994;28;20426;-80
2023/12/24 13:46:34;;;;;;;6.85;1.40;;;15.00;99.90;;;;;;6320092;28;20098;-83
2023/12/24 13:49:36;;;;;;;7.57;1.73;;;15.00;99.90;;;;;;6320199;28;20056;-81
2023/12/24 13:52:37;;;;;;;6.55;1.42;;;15.00;99.90;;;;;;6318953;28;20142;-82
2023/12/24 13:55:39;;;;;;;6.13;1.60;;;15.00;99.90;;;;;;6319899;28;20064;-80
2023/12/24 13:58:41;;;;;;;6.22;1.52;;;14.90;99.90;;;;;;6316888;28;20052;-82
2023/12/24 14:01:42;;;;;;;4.90;1.58;;;14.90;99.90;;;;;;6319761;28;20055;-82
2023/12/24 14:04:45;;;;;;;6.38;1.40;;;14.90;99.90;;;;;;6319242;28;20060;-82
2023/12/24 14:07:46;;;;;;;6.20;1.45;;;14.90;99.90;;;;;;6301049;28;20055;-81
2023/12/24 14:10:48;;;;;;;6.25;1.40;;;14.80;99.90;;;;;;6293134;28;20495;-81
2023/12/24 14:13:50;;;;;;;6.88;1.65;;;14.80;99.90;;;;;;6318190;28;20414;-81
2023/12/24 14:16:51;;;;;;;7.90;1.80;;;14.80;99.90;;;;;;6319222;28;20075;-81
2023/12/24 14:19:53;;;;;;;8.63;1.60;;;14.80;99.90;;;;;;6317600;28;20264;-82
2023/12/24 14:22:54;;;;;;;13.40;1.63;;;14.80;99.90;;;;;;6319370;28;20360;-83
2023/12/24 14:25:57;;;;;;;6.32;1.45;;;14.80;99.90;;;;;;6294568;28;20049;-80
2023/12/24 14:28:59;;;;;;;5.55;1.50;;;14.70;99.90;;;;;;6284803;28;20044;-82
2023/12/24 14:32:01;;;;;;;6.25;1.60;;;14.70;99.90;;;;;;6318974;28;20071;-82
2023/12/24 14:35:03;;;;;;;3.90;1.30;;;14.80;99.90;;;;;;6319316;28;20048;-81
2023/12/24 14:38:05;;;;;;;6.70;1.60;;;14.70;99.90;;;;;;6319310;28;20068;-81
2023/12/24 14:41:07;;;;;;;8.35;1.45;;;14.70;99.90;;;;;;6319575;28;20055;-82
2023/12/24 14:44:09;;;;;;;6.97;1.52;;;14.60;99.90;;;;;;6299712;28;20078;-83
2023/12/24 14:47:10;;;;;;;6.07;1.40;;;14.60;99.90;;;;;;6319399;28;20052;-82
2023/12/24 14:50:12;;;;;;;8.93;1.40;;;14.50;99.90;;;;;;6318751;28;20203;-84
2023/12/24 14:53:14;;;;;;;4.80;1.17;;;14.50;99.90;;;;;;6300924;28;20059;-84
2023/12/24 14:56:15;;;;;;;4.60;1.00;;;14.50;99.90;;;;;;6318461;28;20048;-81
2023/12/24 14:59:17;;;;;;;5.30;1.23;;;14.50;99.90;;;;;;6297654;28;20051;-81
2023/12/24 15:02:19;;;;;;;6.65;1.35;;;14.50;99.90;;;;;;6316294;28;20506;-83
2023/12/24 15:05:21;;;;;;;7.75;1.60;;;14.40;99.90;;;;;;6300996;28;20062;-80
2023/12/24 15:08:22;;;;;;;7.45;1.20;;;14.40;99.90;;;;;;6293876;28;20056;-80
2023/12/24 15:11:25;;;;;;;6.35;1.40;;;14.40;99.90;;;;;;6293705;28;20052;-80
2023/12/24 15:14:27;;;;;;;6.13;1.25;;;14.40;99.90;;;;;;6316533;28;20137;-79
2023/12/24 15:17:28;;;;;;;4.75;1.00;;;14.30;99.90;;;;;;6318246;28;20044;-80
2023/12/24 15:20:30;;;;;;;6.40;0.93;;;14.30;99.90;;;;;;6318319;28;20078;-81
2023/12/24 15:23:32;;;;;;;6.38;1.10;;;14.40;99.90;;;;;;6317888;28;20166;-81
2023/12/24 15:26:33;;;;;;;5.78;1.20;;;14.30;99.90;;;;;;6317772;28;20056;-82
2023/12/24 15:29:35;;;;;;;4.57;1.10;;;14.30;99.90;;;;;;6314259;28;20421;-81
2023/12/24 15:32:39;;;;;;;3.67;1.00;;;14.30;99.90;;;;;;6317779;28;20530;-80
2023/12/24 15:35:41;;;;;;;4.22;1.08;;;14.30;99.90;;;;;;6293764;28;20056;-81
2023/12/24 15:38:43;;;;;;;5.05;1.10;;;14.20;99.90;;;;;;6317638;28;20067;-82
2023/12/24 15:41:44;;;;;;;5.50;1.48;;;14.20;99.90;;;;;;6300331;28;20505;-82
2023/12/24 15:44:47;;;;;;;3.20;0.80;;;14.20;99.90;;;;;;6317021;28;20063;-81